GLO1877 SBJU-SBGR
Flight info
| Callsign | GLO1877 |
|---|---|
| Flight time | 2h 35m |
| Altitude | 38000 |
| Route | OGTID DCT KOPTO DCT EVPIV UZ61 REDAD UZ21 VUNOX |
| Aircraft | B738/M-SDFGIKLORWXY/LB1 |
Departure
| Time | 2026-04-30 10:58 |
|---|---|
| Airport | Orlando Bezerra de Menezes Airport (SBJU) |
Arrival
| Time | 2026-04-30 13:33 |
|---|---|
| Airport | São Paulo/Guarulhos–Governor André Franco Montoro International Airport (SBGR) |
| Time | Latitude | Longitude | Altitude | Speed | Heading |
|---|---|---|---|---|---|
| 2026-04-30 10:33 | -7.21570 | -39.27236 | 1349 ft | 0 kts | 20° |
| 2026-04-30 10:51 | -7.21568 | -39.27237 | 1349 ft | 0 kts | 359° |
| 2026-04-30 10:52 | -7.21565 | -39.27239 | 1350 ft | 0 kts | 332° |
| 2026-04-30 10:52 | -7.21564 | -39.27243 | 1349 ft | 1 kts | 291° |
| 2026-04-30 10:52 | -7.21567 | -39.27249 | 1349 ft | 2 kts | 249° |
| 2026-04-30 10:52 | -7.21578 | -39.27257 | 1349 ft | 2 kts | 206° |
| 2026-04-30 10:53 | -7.21592 | -39.27258 | 1347 ft | 2 kts | 173° |
| 2026-04-30 10:53 | -7.21604 | -39.27251 | 1346 ft | 2 kts | 142° |
| 2026-04-30 10:53 | -7.21620 | -39.27233 | 1345 ft | 4 kts | 136° |
| 2026-04-30 10:53 | -7.21646 | -39.27215 | 1345 ft | 6 kts | 150° |
| 2026-04-30 10:54 | -7.21704 | -39.27187 | 1346 ft | 10 kts | 156° |
| 2026-04-30 10:54 | -7.21766 | -39.27160 | 1347 ft | 10 kts | 162° |
| 2026-04-30 10:54 | -7.21816 | -39.27190 | 1346 ft | 10 kts | 266° |
| 2026-04-30 10:54 | -7.21797 | -39.27262 | 1346 ft | 12 kts | 289° |
| 2026-04-30 10:55 | -7.21769 | -39.27338 | 1348 ft | 11 kts | 291° |
| 2026-04-30 10:55 | -7.21740 | -39.27412 | 1346 ft | 11 kts | 290° |
| 2026-04-30 10:55 | -7.21710 | -39.27494 | 1347 ft | 14 kts | 290° |
| 2026-04-30 10:55 | -7.21672 | -39.27582 | 1346 ft | 13 kts | 300° |
| 2026-04-30 10:56 | -7.21630 | -39.27662 | 1346 ft | 12 kts | 292° |
| 2026-04-30 10:56 | -7.21631 | -39.27722 | 1346 ft | 8 kts | 257° |
| 2026-04-30 10:56 | -7.21618 | -39.27754 | 1347 ft | 2 kts | 8° |
| 2026-04-30 10:56 | -7.21618 | -39.27741 | 1348 ft | 2 kts | 103° |
| 2026-04-30 10:57 | -7.21619 | -39.27738 | 1346 ft | 0 kts | 107° |
| 2026-04-30 10:57 | -7.21622 | -39.27726 | 1345 ft | 13 kts | 109° |
| 2026-04-30 10:58 | -7.21758 | -39.27365 | 1347 ft | 95 kts | 111° |
| 2026-04-30 10:58 | -7.22079 | -39.26511 | 1348 ft | 163 kts | 110° |
| 2026-04-30 10:58 | -7.22516 | -39.25337 | 1810 ft | 185 kts | 111° |
| 2026-04-30 10:58 | -7.22963 | -39.24147 | 2813 ft | 183 kts | 111° |
| 2026-04-30 10:59 | -7.23444 | -39.22887 | 3316 ft | 204 kts | 111° |
| 2026-04-30 10:59 | -7.23979 | -39.21480 | 3637 ft | 223 kts | 113° |
| 2026-04-30 10:59 | -7.24922 | -39.20226 | 4127 ft | 228 kts | 149° |
| 2026-04-30 10:59 | -7.26409 | -39.19803 | 4730 ft | 227 kts | 184° |
| 2026-04-30 11:00 | -7.27952 | -39.20136 | 5390 ft | 226 kts | 200° |
| 2026-04-30 11:00 | -7.29445 | -39.20710 | 5812 ft | 241 kts | 203° |
| 2026-04-30 11:00 | -7.31091 | -39.21390 | 6076 ft | 266 kts | 203° |
| 2026-04-30 11:00 | -7.32820 | -39.22108 | 6740 ft | 273 kts | 203° |
| 2026-04-30 11:01 | -7.34600 | -39.22842 | 7527 ft | 276 kts | 203° |
| 2026-04-30 11:01 | -7.36399 | -39.23578 | 8315 ft | 279 kts | 203° |
| 2026-04-30 11:01 | -7.38196 | -39.24309 | 9068 ft | 283 kts | 203° |
| 2026-04-30 11:01 | -7.40053 | -39.25061 | 9801 ft | 287 kts | 202° |
| 2026-04-30 11:02 | -7.41913 | -39.25812 | 10392 ft | 297 kts | 202° |
| 2026-04-30 11:02 | -7.43921 | -39.26622 | 10592 ft | 320 kts | 202° |
| 2026-04-30 11:02 | -7.46041 | -39.27476 | 11131 ft | 330 kts | 202° |
| 2026-04-30 11:02 | -7.48162 | -39.28328 | 11826 ft | 333 kts | 202° |
| 2026-04-30 11:03 | -7.50327 | -39.29198 | 12562 ft | 336 kts | 202° |
| 2026-04-30 11:03 | -7.52518 | -39.30078 | 13258 ft | 339 kts | 202° |
| 2026-04-30 11:03 | -7.54728 | -39.30966 | 13935 ft | 343 kts | 202° |
| 2026-04-30 11:04 | -7.59192 | -39.32761 | 15256 ft | 350 kts | 202° |
| 2026-04-30 11:04 | -7.61475 | -39.33679 | 15888 ft | 353 kts | 202° |
| 2026-04-30 11:04 | -7.63775 | -39.34604 | 16502 ft | 357 kts | 202° |
| 2026-04-30 11:04 | -7.66074 | -39.35532 | 17136 ft | 359 kts | 204° |
| 2026-04-30 11:05 | -7.68325 | -39.36670 | 17758 ft | 361 kts | 211° |
| 2026-04-30 11:05 | -7.70472 | -39.37981 | 18358 ft | 364 kts | 213° |
| 2026-04-30 11:05 | -7.72617 | -39.39360 | 18921 ft | 367 kts | 213° |
| 2026-04-30 11:05 | -7.74787 | -39.40765 | 19472 ft | 371 kts | 213° |
| 2026-04-30 11:06 | -7.76959 | -39.42157 | 20009 ft | 374 kts | 213° |
| 2026-04-30 11:06 | -7.79175 | -39.43561 | 20561 ft | 377 kts | 212° |
| 2026-04-30 11:06 | -7.81424 | -39.44973 | 21068 ft | 380 kts | 212° |
| 2026-04-30 11:06 | -7.83685 | -39.46384 | 21575 ft | 383 kts | 212° |
| 2026-04-30 11:07 | -7.85936 | -39.47783 | 22060 ft | 386 kts | 212° |
| 2026-04-30 11:07 | -7.88251 | -39.49219 | 22536 ft | 389 kts | 212° |
| 2026-04-30 11:07 | -7.90543 | -39.50640 | 23007 ft | 391 kts | 212° |
| 2026-04-30 11:07 | -7.92876 | -39.52085 | 23464 ft | 394 kts | 212° |
| 2026-04-30 11:08 | -7.95231 | -39.53545 | 23907 ft | 397 kts | 212° |
| 2026-04-30 11:08 | -7.97576 | -39.54998 | 24334 ft | 399 kts | 212° |
| 2026-04-30 11:08 | -7.99957 | -39.56474 | 24769 ft | 402 kts | 212° |
| 2026-04-30 11:08 | -8.02365 | -39.57967 | 25164 ft | 405 kts | 212° |
| 2026-04-30 11:09 | -8.04756 | -39.59450 | 25566 ft | 407 kts | 212° |
| 2026-04-30 11:09 | -8.07183 | -39.60956 | 25940 ft | 410 kts | 212° |
| 2026-04-30 11:09 | -8.09626 | -39.62471 | 26313 ft | 412 kts | 212° |
| 2026-04-30 11:09 | -8.12094 | -39.64002 | 26684 ft | 415 kts | 212° |
| 2026-04-30 11:10 | -8.14531 | -39.65514 | 27050 ft | 417 kts | 212° |
| 2026-04-30 11:10 | -8.17014 | -39.67055 | 27399 ft | 419 kts | 212° |
| 2026-04-30 11:10 | -8.19516 | -39.68608 | 27723 ft | 422 kts | 212° |
| 2026-04-30 11:10 | -8.21999 | -39.70150 | 28053 ft | 424 kts | 212° |
| 2026-04-30 11:11 | -8.24534 | -39.71724 | 28379 ft | 426 kts | 212° |
| 2026-04-30 11:11 | -8.27070 | -39.73299 | 28704 ft | 428 kts | 212° |
| 2026-04-30 11:11 | -8.29590 | -39.74864 | 28998 ft | 430 kts | 212° |
| 2026-04-30 11:11 | -8.32156 | -39.76459 | 29292 ft | 432 kts | 212° |
| 2026-04-30 11:12 | -8.34734 | -39.78061 | 29584 ft | 434 kts | 212° |
| 2026-04-30 11:12 | -8.37290 | -39.79649 | 29863 ft | 436 kts | 212° |
| 2026-04-30 11:12 | -8.39912 | -39.81216 | 30125 ft | 438 kts | 206° |
| 2026-04-30 11:12 | -8.42741 | -39.82427 | 30376 ft | 441 kts | 201° |
| 2026-04-30 11:13 | -8.45653 | -39.83481 | 30644 ft | 442 kts | 199° |
| 2026-04-30 11:13 | -8.48535 | -39.84470 | 30883 ft | 444 kts | 199° |
| 2026-04-30 11:13 | -8.51489 | -39.85481 | 31126 ft | 446 kts | 199° |
| 2026-04-30 11:13 | -8.54436 | -39.86506 | 31357 ft | 448 kts | 200° |
| 2026-04-30 11:14 | -8.57388 | -39.87553 | 31587 ft | 449 kts | 200° |
| 2026-04-30 11:14 | -8.60306 | -39.88605 | 31806 ft | 451 kts | 200° |
| 2026-04-30 11:14 | -8.63269 | -39.89684 | 32022 ft | 452 kts | 200° |
| 2026-04-30 11:14 | -8.66261 | -39.90781 | 32233 ft | 454 kts | 200° |
| 2026-04-30 11:15 | -8.69234 | -39.91873 | 32438 ft | 455 kts | 200° |
| 2026-04-30 11:15 | -8.72195 | -39.92963 | 32664 ft | 456 kts | 200° |
| 2026-04-30 11:15 | -8.75181 | -39.94061 | 32954 ft | 455 kts | 200° |
| 2026-04-30 11:15 | -8.78171 | -39.95161 | 33258 ft | 454 kts | 200° |
| 2026-04-30 11:16 | -8.81102 | -39.96238 | 33531 ft | 453 kts | 200° |
| 2026-04-30 11:16 | -8.84084 | -39.97334 | 33752 ft | 453 kts | 200° |
| 2026-04-30 11:16 | -8.87032 | -39.98418 | 34004 ft | 452 kts | 200° |
| 2026-04-30 11:16 | -8.90002 | -39.99510 | 34253 ft | 452 kts | 200° |
| 2026-04-30 11:17 | -8.92961 | -40.00598 | 34491 ft | 451 kts | 200° |
| 2026-04-30 11:17 | -8.95893 | -40.01676 | 34706 ft | 451 kts | 200° |
| 2026-04-30 11:17 | -8.98854 | -40.02765 | 34948 ft | 450 kts | 200° |
| 2026-04-30 11:17 | -9.01805 | -40.03851 | 35171 ft | 450 kts | 200° |
| 2026-04-30 11:18 | -9.04752 | -40.04935 | 35387 ft | 449 kts | 200° |
| 2026-04-30 11:18 | -9.10604 | -40.07089 | 35796 ft | 449 kts | 200° |
| 2026-04-30 11:18 | -9.13550 | -40.08173 | 35985 ft | 448 kts | 200° |
| 2026-04-30 11:19 | -9.15500 | -40.08891 | 36108 ft | 448 kts | 200° |
| 2026-04-30 11:19 | -9.19398 | -40.10327 | 36344 ft | 448 kts | 200° |
| 2026-04-30 11:19 | -9.24306 | -40.12135 | 36607 ft | 448 kts | 200° |
| 2026-04-30 11:20 | -9.27205 | -40.13203 | 36774 ft | 448 kts | 200° |
| 2026-04-30 11:20 | -9.30149 | -40.14287 | 36923 ft | 448 kts | 200° |
| 2026-04-30 11:20 | -9.33095 | -40.15373 | 37062 ft | 449 kts | 200° |
| 2026-04-30 11:20 | -9.36035 | -40.16457 | 37216 ft | 449 kts | 200° |
| 2026-04-30 11:21 | -9.38934 | -40.17526 | 37380 ft | 448 kts | 200° |
| 2026-04-30 11:21 | -9.41885 | -40.18614 | 37509 ft | 448 kts | 200° |
| 2026-04-30 11:21 | -9.44797 | -40.19688 | 37641 ft | 448 kts | 200° |
| 2026-04-30 11:21 | -9.47735 | -40.20772 | 37786 ft | 448 kts | 200° |
| 2026-04-30 11:22 | -9.50683 | -40.21860 | 37925 ft | 448 kts | 200° |
| 2026-04-30 11:22 | -9.53587 | -40.22932 | 37991 ft | 449 kts | 200° |
| 2026-04-30 11:22 | -9.59507 | -40.25117 | 38002 ft | 450 kts | 200° |
| 2026-04-30 11:23 | -9.65368 | -40.27281 | 38002 ft | 449 kts | 200° |
| 2026-04-30 11:24 | -9.74171 | -40.30533 | 38001 ft | 448 kts | 200° |
| 2026-04-30 11:24 | -9.80009 | -40.32691 | 38001 ft | 447 kts | 200° |
| 2026-04-30 11:25 | -9.88756 | -40.35926 | 38001 ft | 446 kts | 200° |
| 2026-04-30 11:26 | -10.00422 | -40.40243 | 38003 ft | 446 kts | 200° |
| 2026-04-30 11:26 | -10.06252 | -40.42401 | 37999 ft | 447 kts | 200° |
| 2026-04-30 11:27 | -10.12132 | -40.44579 | 38004 ft | 448 kts | 200° |
| 2026-04-30 11:27 | -10.17967 | -40.46741 | 38004 ft | 449 kts | 200° |
| 2026-04-30 11:28 | -10.26782 | -40.50009 | 38002 ft | 451 kts | 200° |
| 2026-04-30 11:29 | -10.32675 | -40.52195 | 38002 ft | 452 kts | 200° |
| 2026-04-30 11:29 | -10.41569 | -40.55495 | 38001 ft | 453 kts | 200° |
| 2026-04-30 11:30 | -10.50425 | -40.58784 | 38000 ft | 454 kts | 200° |
| 2026-04-30 11:31 | -10.56384 | -40.60998 | 37998 ft | 453 kts | 200° |
| 2026-04-30 11:31 | -10.62293 | -40.63194 | 38000 ft | 453 kts | 200° |
| 2026-04-30 11:32 | -10.68186 | -40.65386 | 38002 ft | 452 kts | 200° |
| 2026-04-30 11:32 | -10.74115 | -40.67591 | 38000 ft | 451 kts | 200° |
| 2026-04-30 11:33 | -10.82955 | -40.70882 | 38002 ft | 450 kts | 201° |
| 2026-04-30 11:33 | -10.88787 | -40.73073 | 38003 ft | 449 kts | 201° |
| 2026-04-30 11:34 | -10.94664 | -40.75295 | 37998 ft | 449 kts | 201° |
| 2026-04-30 11:34 | -11.00501 | -40.77504 | 37999 ft | 448 kts | 201° |
| 2026-04-30 11:35 | -11.06364 | -40.79722 | 38002 ft | 448 kts | 201° |
| 2026-04-30 11:35 | -11.12197 | -40.81927 | 38000 ft | 448 kts | 201° |
| 2026-04-30 11:36 | -11.18015 | -40.84128 | 38004 ft | 447 kts | 201° |
| 2026-04-30 11:36 | -11.23887 | -40.86351 | 38001 ft | 448 kts | 201° |
| 2026-04-30 11:37 | -11.29719 | -40.88559 | 38000 ft | 448 kts | 201° |
| 2026-04-30 11:37 | -11.35545 | -40.90766 | 38002 ft | 449 kts | 201° |
| 2026-04-30 11:38 | -11.41419 | -40.92992 | 38002 ft | 450 kts | 201° |
| 2026-04-30 11:38 | -11.47309 | -40.95225 | 38001 ft | 450 kts | 201° |
| 2026-04-30 11:39 | -11.53176 | -40.97450 | 38006 ft | 451 kts | 201° |
| 2026-04-30 11:39 | -11.59053 | -40.99680 | 37998 ft | 452 kts | 201° |
| 2026-04-30 11:40 | -11.64958 | -41.01922 | 38003 ft | 452 kts | 201° |
| 2026-04-30 11:40 | -11.70862 | -41.04165 | 38003 ft | 453 kts | 201° |
| 2026-04-30 11:41 | -11.76777 | -41.06412 | 38001 ft | 453 kts | 201° |
| 2026-04-30 11:41 | -11.82681 | -41.08657 | 38005 ft | 453 kts | 201° |
| 2026-04-30 11:42 | -11.88571 | -41.10897 | 38000 ft | 453 kts | 201° |
| 2026-04-30 11:42 | -11.94503 | -41.13154 | 37998 ft | 453 kts | 201° |
| 2026-04-30 11:43 | -12.00389 | -41.15395 | 37999 ft | 452 kts | 201° |
| 2026-04-30 11:43 | -12.06259 | -41.17631 | 38000 ft | 451 kts | 201° |
| 2026-04-30 11:44 | -12.12164 | -41.19881 | 38001 ft | 450 kts | 201° |
| 2026-04-30 11:44 | -12.18017 | -41.22112 | 37998 ft | 449 kts | 201° |
| 2026-04-30 11:45 | -12.23859 | -41.24340 | 37999 ft | 449 kts | 201° |
| 2026-04-30 11:45 | -12.29697 | -41.26568 | 37997 ft | 448 kts | 201° |
| 2026-04-30 11:46 | -12.35561 | -41.28807 | 38004 ft | 447 kts | 201° |
| 2026-04-30 11:46 | -12.41373 | -41.31027 | 38000 ft | 447 kts | 201° |
| 2026-04-30 11:47 | -12.47194 | -41.33251 | 38007 ft | 447 kts | 201° |
| 2026-04-30 11:47 | -12.53026 | -41.35481 | 37997 ft | 447 kts | 201° |
| 2026-04-30 11:48 | -12.58843 | -41.37706 | 38003 ft | 447 kts | 201° |
| 2026-04-30 11:48 | -12.64665 | -41.39934 | 37992 ft | 447 kts | 201° |
| 2026-04-30 11:49 | -12.70487 | -41.42163 | 37999 ft | 447 kts | 201° |
| 2026-04-30 11:49 | -12.76346 | -41.44408 | 38001 ft | 449 kts | 201° |
| 2026-04-30 11:50 | -12.82185 | -41.46646 | 38007 ft | 451 kts | 201° |
| 2026-04-30 11:50 | -12.88071 | -41.48903 | 38010 ft | 452 kts | 201° |
| 2026-04-30 11:51 | -12.93987 | -41.51173 | 38001 ft | 454 kts | 201° |
| 2026-04-30 11:51 | -12.99919 | -41.53449 | 38004 ft | 456 kts | 201° |
| 2026-04-30 11:52 | -13.05857 | -41.55730 | 37999 ft | 457 kts | 201° |
| 2026-04-30 11:52 | -13.11828 | -41.58024 | 38000 ft | 457 kts | 201° |
| 2026-04-30 11:53 | -13.17752 | -41.60301 | 38005 ft | 456 kts | 201° |
| 2026-04-30 11:53 | -13.23693 | -41.62586 | 38006 ft | 455 kts | 201° |
| 2026-04-30 11:54 | -13.29615 | -41.64865 | 37994 ft | 453 kts | 201° |
| 2026-04-30 11:54 | -13.35497 | -41.67130 | 38002 ft | 451 kts | 201° |
| 2026-04-30 11:55 | -13.41362 | -41.69389 | 37992 ft | 449 kts | 201° |
| 2026-04-30 11:55 | -13.47238 | -41.71654 | 37994 ft | 448 kts | 201° |
| 2026-04-30 11:56 | -13.53034 | -41.73889 | 37999 ft | 447 kts | 201° |
| 2026-04-30 11:56 | -13.58844 | -41.76131 | 37999 ft | 446 kts | 201° |
| 2026-04-30 11:57 | -13.64656 | -41.78375 | 37994 ft | 446 kts | 201° |
| 2026-04-30 11:57 | -13.70494 | -41.80630 | 38003 ft | 446 kts | 201° |
| 2026-04-30 11:58 | -13.76287 | -41.82869 | 38000 ft | 447 kts | 201° |
| 2026-04-30 11:58 | -13.82124 | -41.85126 | 38002 ft | 447 kts | 201° |
| 2026-04-30 11:59 | -13.87957 | -41.87382 | 37998 ft | 448 kts | 201° |
| 2026-04-30 11:59 | -13.93792 | -41.89641 | 38009 ft | 449 kts | 201° |
| 2026-04-30 12:00 | -13.99634 | -41.91903 | 38003 ft | 449 kts | 201° |
| 2026-04-30 12:00 | -14.04521 | -41.93797 | 38002 ft | 450 kts | 201° |
| 2026-04-30 12:01 | -14.10381 | -41.96069 | 38000 ft | 450 kts | 201° |
| 2026-04-30 12:01 | -14.16231 | -41.98338 | 37997 ft | 450 kts | 201° |
| 2026-04-30 12:02 | -14.22096 | -42.00614 | 38002 ft | 450 kts | 201° |
| 2026-04-30 12:02 | -14.27988 | -42.02902 | 38000 ft | 450 kts | 201° |
| 2026-04-30 12:03 | -14.36777 | -42.06317 | 38001 ft | 450 kts | 201° |
| 2026-04-30 12:04 | -14.42645 | -42.08599 | 38001 ft | 450 kts | 201° |
| 2026-04-30 12:04 | -14.48487 | -42.10872 | 38000 ft | 450 kts | 201° |
| 2026-04-30 12:05 | -14.54326 | -42.13145 | 38000 ft | 449 kts | 201° |
| 2026-04-30 12:05 | -14.60167 | -42.15420 | 38001 ft | 449 kts | 201° |
| 2026-04-30 12:06 | -14.66030 | -42.17705 | 37999 ft | 449 kts | 201° |
| 2026-04-30 12:06 | -14.71852 | -42.19976 | 38001 ft | 449 kts | 201° |
| 2026-04-30 12:07 | -14.77706 | -42.22260 | 38002 ft | 449 kts | 201° |
| 2026-04-30 12:07 | -14.83535 | -42.24535 | 38004 ft | 449 kts | 201° |
| 2026-04-30 12:08 | -14.89400 | -42.26826 | 38001 ft | 449 kts | 201° |
| 2026-04-30 12:08 | -14.95236 | -42.29107 | 38002 ft | 449 kts | 201° |
| 2026-04-30 12:09 | -15.01076 | -42.31391 | 38001 ft | 450 kts | 201° |
| 2026-04-30 12:09 | -15.06955 | -42.33692 | 38001 ft | 450 kts | 201° |
| 2026-04-30 12:10 | -15.12822 | -42.35989 | 38003 ft | 451 kts | 201° |
| 2026-04-30 12:10 | -15.18676 | -42.38283 | 38002 ft | 451 kts | 201° |
| 2026-04-30 12:11 | -15.24581 | -42.40598 | 38001 ft | 452 kts | 201° |
| 2026-04-30 12:11 | -15.30443 | -42.42897 | 38001 ft | 452 kts | 201° |
| 2026-04-30 12:12 | -15.36343 | -42.45213 | 38000 ft | 452 kts | 201° |
| 2026-04-30 12:12 | -15.42244 | -42.47530 | 38001 ft | 453 kts | 201° |
| 2026-04-30 12:13 | -15.48120 | -42.49839 | 38000 ft | 453 kts | 201° |
| 2026-04-30 12:13 | -15.54014 | -42.52157 | 37999 ft | 452 kts | 201° |
| 2026-04-30 12:14 | -15.59883 | -42.54466 | 38003 ft | 452 kts | 201° |
| 2026-04-30 12:14 | -15.65753 | -42.56777 | 37999 ft | 451 kts | 201° |
| 2026-04-30 12:15 | -15.71635 | -42.59094 | 37995 ft | 451 kts | 201° |
| 2026-04-30 12:15 | -15.77490 | -42.61402 | 38003 ft | 450 kts | 201° |
| 2026-04-30 12:16 | -15.83364 | -42.63719 | 38002 ft | 450 kts | 201° |
| 2026-04-30 12:16 | -15.89209 | -42.66026 | 37999 ft | 450 kts | 201° |
| 2026-04-30 12:17 | -15.97973 | -42.69488 | 38007 ft | 449 kts | 201° |
| 2026-04-30 12:17 | -16.03835 | -42.71805 | 38003 ft | 450 kts | 201° |
| 2026-04-30 12:18 | -16.09677 | -42.74116 | 37995 ft | 450 kts | 201° |
| 2026-04-30 12:18 | -16.15537 | -42.76435 | 38009 ft | 449 kts | 201° |
| 2026-04-30 12:19 | -16.21384 | -42.78752 | 38000 ft | 450 kts | 201° |
| 2026-04-30 12:19 | -16.27206 | -42.81060 | 38002 ft | 450 kts | 201° |
| 2026-04-30 12:20 | -16.33069 | -42.83364 | 38004 ft | 450 kts | 199° |
| 2026-04-30 12:20 | -16.39093 | -42.85255 | 38007 ft | 450 kts | 196° |
| 2026-04-30 12:21 | -16.45125 | -42.86999 | 37997 ft | 451 kts | 196° |
| 2026-04-30 12:21 | -16.51148 | -42.88763 | 38004 ft | 450 kts | 196° |
| 2026-04-30 12:22 | -16.57171 | -42.90558 | 37999 ft | 451 kts | 197° |
| 2026-04-30 12:22 | -16.63181 | -42.92363 | 38007 ft | 450 kts | 197° |
| 2026-04-30 12:23 | -16.69242 | -42.94185 | 38001 ft | 451 kts | 197° |
| 2026-04-30 12:23 | -16.75250 | -42.95992 | 38002 ft | 451 kts | 197° |
| 2026-04-30 12:24 | -16.81281 | -42.97806 | 38000 ft | 451 kts | 197° |
| 2026-04-30 12:24 | -16.87313 | -42.99621 | 38003 ft | 451 kts | 197° |
| 2026-04-30 12:25 | -16.93357 | -43.01442 | 38001 ft | 451 kts | 197° |
| 2026-04-30 12:25 | -16.99387 | -43.03260 | 38002 ft | 451 kts | 197° |
| 2026-04-30 12:26 | -17.05408 | -43.05075 | 38006 ft | 451 kts | 197° |
| 2026-04-30 12:26 | -17.11407 | -43.06886 | 37998 ft | 451 kts | 197° |
| 2026-04-30 12:27 | -17.17430 | -43.08705 | 37999 ft | 450 kts | 197° |
| 2026-04-30 12:27 | -17.23436 | -43.10520 | 38003 ft | 450 kts | 197° |
| 2026-04-30 12:28 | -17.29465 | -43.12343 | 38003 ft | 450 kts | 197° |
| 2026-04-30 12:28 | -17.35462 | -43.14159 | 37997 ft | 450 kts | 197° |
| 2026-04-30 12:29 | -17.41493 | -43.15985 | 38004 ft | 449 kts | 197° |
| 2026-04-30 12:29 | -17.47489 | -43.17803 | 37995 ft | 450 kts | 197° |
| 2026-04-30 12:30 | -17.53493 | -43.19624 | 38004 ft | 450 kts | 197° |
| 2026-04-30 12:30 | -17.59503 | -43.21450 | 38003 ft | 450 kts | 197° |
| 2026-04-30 12:31 | -17.65544 | -43.23290 | 38005 ft | 450 kts | 197° |
| 2026-04-30 12:31 | -17.71542 | -43.25119 | 38003 ft | 451 kts | 197° |
| 2026-04-30 12:32 | -17.77552 | -43.26953 | 37999 ft | 451 kts | 197° |
| 2026-04-30 12:32 | -17.83592 | -43.28797 | 38005 ft | 451 kts | 197° |
| 2026-04-30 12:33 | -17.89615 | -43.30637 | 37999 ft | 451 kts | 197° |
| 2026-04-30 12:33 | -17.95625 | -43.32475 | 38001 ft | 451 kts | 197° |
| 2026-04-30 12:34 | -18.01651 | -43.34318 | 38003 ft | 452 kts | 197° |
| 2026-04-30 12:34 | -18.07706 | -43.36172 | 38003 ft | 452 kts | 197° |
| 2026-04-30 12:35 | -18.13756 | -43.38026 | 37995 ft | 452 kts | 197° |
| 2026-04-30 12:35 | -18.19783 | -43.39874 | 38004 ft | 452 kts | 197° |
| 2026-04-30 12:36 | -18.25718 | -43.41991 | 37989 ft | 451 kts | 207° |
| 2026-04-30 12:36 | -18.31216 | -43.45125 | 37999 ft | 451 kts | 210° |
| 2026-04-30 12:37 | -18.36706 | -43.48314 | 37998 ft | 451 kts | 209° |
| 2026-04-30 12:37 | -18.42220 | -43.51453 | 37999 ft | 451 kts | 209° |
| 2026-04-30 12:38 | -18.47767 | -43.54592 | 38003 ft | 450 kts | 209° |
| 2026-04-30 12:38 | -18.53289 | -43.57721 | 37997 ft | 451 kts | 208° |
| 2026-04-30 12:39 | -18.58793 | -43.60838 | 38007 ft | 451 kts | 209° |
| 2026-04-30 12:39 | -18.64329 | -43.63976 | 38000 ft | 451 kts | 209° |
| 2026-04-30 12:40 | -18.69835 | -43.67100 | 38004 ft | 451 kts | 209° |
| 2026-04-30 12:40 | -18.74443 | -43.69716 | 38000 ft | 451 kts | 209° |
| 2026-04-30 12:41 | -18.79966 | -43.72855 | 38007 ft | 451 kts | 209° |
| 2026-04-30 12:41 | -18.85527 | -43.76018 | 38000 ft | 452 kts | 209° |
| 2026-04-30 12:42 | -18.91048 | -43.79160 | 38004 ft | 452 kts | 209° |
| 2026-04-30 12:42 | -18.96574 | -43.82308 | 38006 ft | 452 kts | 209° |
| 2026-04-30 12:43 | -19.02092 | -43.85452 | 37996 ft | 451 kts | 209° |
| 2026-04-30 12:43 | -19.07638 | -43.88616 | 38002 ft | 450 kts | 209° |
| 2026-04-30 12:44 | -19.13136 | -43.91754 | 38000 ft | 450 kts | 209° |
| 2026-04-30 12:44 | -19.18632 | -43.94894 | 38002 ft | 449 kts | 209° |
| 2026-04-30 12:45 | -19.24114 | -43.98029 | 38002 ft | 448 kts | 209° |
| 2026-04-30 12:45 | -19.29584 | -44.01159 | 37998 ft | 447 kts | 209° |
| 2026-04-30 12:46 | -19.35057 | -44.04292 | 38002 ft | 447 kts | 209° |
| 2026-04-30 12:46 | -19.40538 | -44.07433 | 37999 ft | 446 kts | 209° |
| 2026-04-30 12:47 | -19.45987 | -44.10558 | 38003 ft | 446 kts | 209° |
| 2026-04-30 12:47 | -19.51435 | -44.13685 | 38000 ft | 446 kts | 209° |
| 2026-04-30 12:48 | -19.56917 | -44.16834 | 38005 ft | 447 kts | 209° |
| 2026-04-30 12:48 | -19.62383 | -44.19976 | 38000 ft | 448 kts | 209° |
| 2026-04-30 12:49 | -19.67859 | -44.23127 | 38004 ft | 449 kts | 209° |
| 2026-04-30 12:49 | -19.73341 | -44.26283 | 38003 ft | 450 kts | 209° |
| 2026-04-30 12:50 | -19.78869 | -44.29468 | 38002 ft | 450 kts | 209° |
| 2026-04-30 12:50 | -19.84363 | -44.32636 | 38002 ft | 451 kts | 209° |
| 2026-04-30 12:51 | -19.89872 | -44.35816 | 38001 ft | 451 kts | 209° |
| 2026-04-30 12:51 | -19.95413 | -44.39016 | 37999 ft | 451 kts | 209° |
| 2026-04-30 12:52 | -20.00920 | -44.42200 | 38002 ft | 451 kts | 209° |
| 2026-04-30 12:52 | -20.06419 | -44.45382 | 37998 ft | 451 kts | 209° |
| 2026-04-30 12:53 | -20.11926 | -44.48571 | 38000 ft | 450 kts | 209° |
| 2026-04-30 12:53 | -20.17201 | -44.52118 | 38011 ft | 449 kts | 217° |
| 2026-04-30 12:54 | -20.22196 | -44.56097 | 37993 ft | 449 kts | 217° |
| 2026-04-30 12:54 | -20.27218 | -44.60094 | 38005 ft | 449 kts | 217° |
| 2026-04-30 12:55 | -20.32248 | -44.64031 | 38002 ft | 449 kts | 217° |
| 2026-04-30 12:55 | -20.37304 | -44.67969 | 37999 ft | 449 kts | 217° |
| 2026-04-30 12:56 | -20.42317 | -44.71879 | 38000 ft | 449 kts | 217° |
| 2026-04-30 12:56 | -20.47361 | -44.75817 | 37998 ft | 449 kts | 217° |
| 2026-04-30 12:57 | -20.52386 | -44.79744 | 38003 ft | 449 kts | 217° |
| 2026-04-30 12:57 | -20.57422 | -44.83684 | 38005 ft | 449 kts | 217° |
| 2026-04-30 12:58 | -20.62479 | -44.87646 | 38001 ft | 449 kts | 217° |
| 2026-04-30 12:58 | -20.67508 | -44.91589 | 37999 ft | 449 kts | 217° |
| 2026-04-30 12:59 | -20.72530 | -44.95529 | 38000 ft | 449 kts | 217° |
| 2026-04-30 12:59 | -20.77553 | -44.99471 | 38005 ft | 449 kts | 217° |
| 2026-04-30 13:00 | -20.82617 | -45.03446 | 38003 ft | 449 kts | 217° |
| 2026-04-30 13:00 | -20.87643 | -45.07394 | 38002 ft | 449 kts | 217° |
| 2026-04-30 13:01 | -20.92657 | -45.11336 | 37999 ft | 449 kts | 217° |
| 2026-04-30 13:01 | -20.97721 | -45.15318 | 38002 ft | 449 kts | 217° |
| 2026-04-30 13:02 | -21.02737 | -45.19268 | 38002 ft | 449 kts | 217° |
| 2026-04-30 13:02 | -21.07763 | -45.23228 | 38001 ft | 449 kts | 217° |
| 2026-04-30 13:03 | -21.12779 | -45.27186 | 38000 ft | 449 kts | 217° |
| 2026-04-30 13:03 | -21.17821 | -45.31166 | 37997 ft | 449 kts | 217° |
| 2026-04-30 13:04 | -21.22832 | -45.35126 | 38003 ft | 448 kts | 217° |
| 2026-04-30 13:04 | -21.27874 | -45.39114 | 38000 ft | 448 kts | 217° |
| 2026-04-30 13:05 | -21.32892 | -45.43086 | 38001 ft | 448 kts | 217° |
| 2026-04-30 13:06 | -21.40418 | -45.49051 | 37999 ft | 448 kts | 217° |
| 2026-04-30 13:06 | -21.45424 | -45.53023 | 38008 ft | 448 kts | 217° |
| 2026-04-30 13:07 | -21.50435 | -45.57001 | 38001 ft | 449 kts | 217° |
| 2026-04-30 13:07 | -21.55460 | -45.60954 | 38002 ft | 449 kts | 217° |
| 2026-04-30 13:08 | -21.60556 | -45.64949 | 37434 ft | 456 kts | 217° |
| 2026-04-30 13:08 | -21.63089 | -45.66938 | 36903 ft | 454 kts | 217° |
| 2026-04-30 13:08 | -21.65643 | -45.68946 | 36351 ft | 453 kts | 217° |
| 2026-04-30 13:08 | -21.68192 | -45.70951 | 35759 ft | 453 kts | 217° |
| 2026-04-30 13:09 | -21.70748 | -45.72964 | 35109 ft | 454 kts | 217° |
| 2026-04-30 13:09 | -21.73273 | -45.74954 | 34471 ft | 454 kts | 217° |
| 2026-04-30 13:09 | -21.75842 | -45.76979 | 33801 ft | 455 kts | 217° |
| 2026-04-30 13:09 | -21.78388 | -45.78988 | 33119 ft | 456 kts | 217° |
| 2026-04-30 13:10 | -21.80957 | -45.81015 | 32417 ft | 457 kts | 217° |
| 2026-04-30 13:10 | -21.83535 | -45.83050 | 31804 ft | 456 kts | 217° |
| 2026-04-30 13:10 | -21.86089 | -45.85066 | 31301 ft | 452 kts | 217° |
| 2026-04-30 13:10 | -21.88594 | -45.87045 | 30805 ft | 449 kts | 217° |
| 2026-04-30 13:11 | -21.91090 | -45.89018 | 30304 ft | 445 kts | 217° |
| 2026-04-30 13:11 | -21.93582 | -45.90989 | 29802 ft | 441 kts | 217° |
| 2026-04-30 13:11 | -21.96056 | -45.92946 | 29306 ft | 437 kts | 217° |
| 2026-04-30 13:11 | -21.98503 | -45.94884 | 28803 ft | 434 kts | 217° |
| 2026-04-30 13:12 | -22.00899 | -45.96781 | 28305 ft | 430 kts | 217° |
| 2026-04-30 13:12 | -22.03313 | -45.98693 | 27804 ft | 427 kts | 217° |
| 2026-04-30 13:12 | -22.05679 | -46.00568 | 27315 ft | 424 kts | 217° |
| 2026-04-30 13:13 | -22.10394 | -46.04309 | 26333 ft | 417 kts | 217° |
| 2026-04-30 13:13 | -22.12731 | -46.06164 | 25914 ft | 413 kts | 217° |
| 2026-04-30 13:13 | -22.17317 | -46.09804 | 24998 ft | 405 kts | 217° |
| 2026-04-30 13:14 | -22.19558 | -46.11580 | 24540 ft | 402 kts | 217° |
| 2026-04-30 13:14 | -22.21817 | -46.13372 | 24075 ft | 399 kts | 217° |
| 2026-04-30 13:14 | -22.26250 | -46.16889 | 23133 ft | 393 kts | 217° |
| 2026-04-30 13:15 | -22.28442 | -46.18629 | 22679 ft | 391 kts | 217° |
| 2026-04-30 13:15 | -22.32915 | -46.21859 | 21799 ft | 385 kts | 205° |
| 2026-04-30 13:15 | -22.35387 | -46.22964 | 21464 ft | 381 kts | 202° |
| 2026-04-30 13:16 | -22.37825 | -46.24013 | 21102 ft | 378 kts | 202° |
| 2026-04-30 13:16 | -22.40275 | -46.25068 | 20758 ft | 378 kts | 202° |
| 2026-04-30 13:16 | -22.42738 | -46.26135 | 20404 ft | 381 kts | 202° |
| 2026-04-30 13:17 | -22.47647 | -46.28280 | 19691 ft | 379 kts | 202° |
| 2026-04-30 13:17 | -22.50061 | -46.29340 | 19332 ft | 376 kts | 203° |
| 2026-04-30 13:17 | -22.54083 | -46.31112 | 18758 ft | 372 kts | 203° |
| 2026-04-30 13:18 | -22.57259 | -46.32513 | 18299 ft | 368 kts | 203° |
| 2026-04-30 13:18 | -22.62005 | -46.34610 | 17616 ft | 364 kts | 203° |
| 2026-04-30 13:18 | -22.64326 | -46.35635 | 17276 ft | 363 kts | 203° |
| 2026-04-30 13:19 | -22.66667 | -46.36670 | 16939 ft | 361 kts | 203° |
| 2026-04-30 13:19 | -22.68971 | -46.37690 | 16605 ft | 359 kts | 203° |
| 2026-04-30 13:19 | -22.71293 | -46.38717 | 16275 ft | 358 kts | 203° |
| 2026-04-30 13:19 | -22.73601 | -46.39738 | 15936 ft | 357 kts | 203° |
| 2026-04-30 13:20 | -22.75899 | -46.40755 | 15608 ft | 355 kts | 203° |
| 2026-04-30 13:20 | -22.78167 | -46.41760 | 15278 ft | 354 kts | 203° |
| 2026-04-30 13:20 | -22.80453 | -46.42773 | 14948 ft | 353 kts | 203° |
| 2026-04-30 13:20 | -22.82729 | -46.43782 | 14615 ft | 351 kts | 203° |
| 2026-04-30 13:21 | -22.84964 | -46.44773 | 14292 ft | 349 kts | 203° |
| 2026-04-30 13:21 | -22.87220 | -46.45774 | 13971 ft | 347 kts | 203° |
| 2026-04-30 13:21 | -22.89455 | -46.46765 | 13647 ft | 345 kts | 203° |
| 2026-04-30 13:22 | -22.93876 | -46.48728 | 13007 ft | 342 kts | 203° |
| 2026-04-30 13:22 | -22.96062 | -46.49699 | 12690 ft | 340 kts | 203° |
| 2026-04-30 13:22 | -22.99717 | -46.51323 | 12164 ft | 338 kts | 203° |
| 2026-04-30 13:23 | -23.01887 | -46.52287 | 11851 ft | 336 kts | 203° |
| 2026-04-30 13:23 | -23.06195 | -46.54204 | 11226 ft | 334 kts | 203° |
| 2026-04-30 13:24 | -23.10418 | -46.56082 | 10605 ft | 324 kts | 203° |
| 2026-04-30 13:24 | -23.14499 | -46.57901 | 10061 ft | 302 kts | 203° |
| 2026-04-30 13:25 | -23.18240 | -46.59567 | 9778 ft | 282 kts | 203° |
| 2026-04-30 13:25 | -23.21940 | -46.61219 | 8973 ft | 287 kts | 203° |
| 2026-04-30 13:26 | -23.27402 | -46.63657 | 8146 ft | 280 kts | 203° |
| 2026-04-30 13:26 | -23.31001 | -46.65266 | 7492 ft | 280 kts | 203° |
| 2026-04-30 13:27 | -23.34522 | -46.66840 | 6921 ft | 267 kts | 203° |
| 2026-04-30 13:28 | -23.39455 | -46.69045 | 6192 ft | 246 kts | 203° |
| 2026-04-30 13:28 | -23.42632 | -46.69497 | 5763 ft | 227 kts | 156° |
| 2026-04-30 13:28 | -23.43879 | -46.68550 | 5535 ft | 217 kts | 133° |
| 2026-04-30 13:29 | -23.45587 | -46.65967 | 5153 ft | 205 kts | 124° |
| 2026-04-30 13:29 | -23.47108 | -46.63443 | 4724 ft | 194 kts | 115° |
| 2026-04-30 13:30 | -23.46712 | -46.59346 | 4235 ft | 177 kts | 77° |
| 2026-04-30 13:31 | -23.46062 | -46.56914 | 3879 ft | 160 kts | 69° |
| 2026-04-30 13:31 | -23.44952 | -46.53487 | 3432 ft | 159 kts | 70° |
| 2026-04-30 13:32 | -23.44222 | -46.51206 | 3062 ft | 162 kts | 71° |
| 2026-04-30 13:32 | -23.43566 | -46.48829 | 2600 ft | 166 kts | 73° |
| 2026-04-30 13:33 | -23.42972 | -46.46652 | 2463 ft | 115 kts | 74° |
| 2026-04-30 13:33 | -23.42687 | -46.45679 | 2459 ft | 31 kts | 56° |
| 2026-04-30 13:34 | -23.42588 | -46.45556 | 2460 ft | 19 kts | 45° |
| 2026-04-30 13:34 | -23.42490 | -46.45509 | 2460 ft | 7 kts | 255° |
| 2026-04-30 13:35 | -23.42505 | -46.45568 | 2462 ft | 9 kts | 253° |
| 2026-04-30 13:35 | -23.42547 | -46.45724 | 2462 ft | 14 kts | 254° |
| 2026-04-30 13:36 | -23.42616 | -46.45976 | 2461 ft | 18 kts | 253° |
| 2026-04-30 13:36 | -23.42652 | -46.46108 | 2463 ft | 18 kts | 253° |
| 2026-04-30 13:36 | -23.42728 | -46.46388 | 2462 ft | 23 kts | 253° |
| 2026-04-30 13:37 | -23.42773 | -46.46555 | 2460 ft | 23 kts | 253° |
| 2026-04-30 13:37 | -23.42859 | -46.46872 | 2462 ft | 21 kts | 253° |
| 2026-04-30 13:38 | -23.42939 | -46.47166 | 2462 ft | 20 kts | 253° |
| 2026-04-30 13:38 | -23.42977 | -46.47306 | 2461 ft | 19 kts | 253° |
| 2026-04-30 13:38 | -23.43049 | -46.47568 | 2459 ft | 17 kts | 253° |
| 2026-04-30 13:39 | -23.43113 | -46.47807 | 2462 ft | 16 kts | 253° |
| 2026-04-30 13:39 | -23.43172 | -46.48026 | 2463 ft | 14 kts | 253° |
| 2026-04-30 13:40 | -23.43149 | -46.48114 | 2463 ft | 14 kts | 339° |
| 2026-04-30 13:40 | -23.43058 | -46.48130 | 2462 ft | 13 kts | 354° |
| 2026-04-30 13:40 | -23.42970 | -46.48140 | 2467 ft | 13 kts | 355° |
| 2026-04-30 13:40 | -23.42885 | -46.48149 | 2462 ft | 12 kts | 354° |
| 2026-04-30 13:41 | -23.42808 | -46.48167 | 2460 ft | 9 kts | 302° |
| 2026-04-30 13:41 | -23.42809 | -46.48230 | 2467 ft | 6 kts | 266° |
| 2026-04-30 13:41 | -23.42810 | -46.48234 | 2466 ft | 1 kts | 267° |
| 2026-04-30 13:41 | -23.42810 | -46.48240 | 2466 ft | 0 kts | 267° |